sensor_id;sensor_type;location;lat;lon;timestamp;P1;durP1;ratioP1;P2;durP2;ratioP2
25045;SDS011;13044;49.304;12.840;2022-12-18T00:01:23;64.15;;;22.40;;
25045;SDS011;13044;49.304;12.840;2022-12-18T00:03:54;69.85;;;24.48;;
25045;SDS011;13044;49.304;12.840;2022-12-18T00:06:22;64.10;;;23.35;;
25045;SDS011;13044;49.304;12.840;2022-12-18T00:08:50;63.72;;;22.90;;
25045;SDS011;13044;49.304;12.840;2022-12-18T00:11:19;67.63;;;23.48;;
25045;SDS011;13044;49.304;12.840;2022-12-18T00:13:49;52.25;;;17.98;;
25045;SDS011;13044;49.304;12.840;2022-12-18T00:16:18;60.83;;;21.02;;
25045;SDS011;13044;49.304;12.840;2022-12-18T00:18:48;58.92;;;17.67;;
25045;SDS011;13044;49.304;12.840;2022-12-18T00:21:17;68.35;;;22.20;;
25045;SDS011;13044;49.304;12.840;2022-12-18T00:23:46;77.78;;;23.50;;
25045;SDS011;13044;49.304;12.840;2022-12-18T00:26:16;73.25;;;23.23;;
25045;SDS011;13044;49.304;12.840;2022-12-18T00:28:48;79.13;;;22.60;;
25045;SDS011;13044;49.304;12.840;2022-12-18T00:31:17;67.60;;;21.40;;
25045;SDS011;13044;49.304;12.840;2022-12-18T00:33:46;63.60;;;21.15;;
25045;SDS011;13044;49.304;12.840;2022-12-18T00:36:20;72.32;;;22.30;;
25045;SDS011;13044;49.304;12.840;2022-12-18T00:38:55;59.65;;;19.88;;
25045;SDS011;13044;49.304;12.840;2022-12-18T00:41:23;53.47;;;18.20;;
25045;SDS011;13044;49.304;12.840;2022-12-18T00:44:10;66.25;;;20.13;;
25045;SDS011;13044;49.304;12.840;2022-12-18T00:46:40;68.35;;;21.73;;
25045;SDS011;13044;49.304;12.840;2022-12-18T00:49:08;55.00;;;19.65;;
25045;SDS011;13044;49.304;12.840;2022-12-18T00:51:38;64.00;;;19.60;;
25045;SDS011;13044;49.304;12.840;2022-12-18T00:54:05;63.60;;;17.83;;
25045;SDS011;13044;49.304;12.840;2022-12-18T00:56:32;73.05;;;21.50;;
25045;SDS011;13044;49.304;12.840;2022-12-18T00:58:59;54.97;;;17.27;;
25045;SDS011;13044;49.304;12.840;2022-12-18T01:01:26;47.38;;;16.10;;
25045;SDS011;13044;49.304;12.840;2022-12-18T01:03:53;88.03;;;24.00;;
25045;SDS011;13044;49.304;12.840;2022-12-18T01:06:19;67.45;;;20.88;;
25045;SDS011;13044;49.304;12.840;2022-12-18T01:08:46;72.85;;;20.67;;
25045;SDS011;13044;49.304;12.840;2022-12-18T01:11:14;70.82;;;21.55;;
25045;SDS011;13044;49.304;12.840;2022-12-18T01:13:43;83.28;;;23.73;;
25045;SDS011;13044;49.304;12.840;2022-12-18T01:16:12;85.70;;;24.00;;
25045;SDS011;13044;49.304;12.840;2022-12-18T01:18:41;88.25;;;24.13;;
25045;SDS011;13044;49.304;12.840;2022-12-18T01:21:10;84.07;;;22.05;;
25045;SDS011;13044;49.304;12.840;2022-12-18T01:23:40;74.20;;;23.52;;
25045;SDS011;13044;49.304;12.840;2022-12-18T01:26:16;83.35;;;20.38;;
25045;SDS011;13044;49.304;12.840;2022-12-18T01:28:43;61.53;;;19.20;;
25045;SDS011;13044;49.304;12.840;2022-12-18T01:31:14;78.72;;;21.27;;
25045;SDS011;13044;49.304;12.840;2022-12-18T01:33:43;68.90;;;21.83;;
25045;SDS011;13044;49.304;12.840;2022-12-18T01:36:14;69.38;;;19.00;;
25045;SDS011;13044;49.304;12.840;2022-12-18T01:39:07;72.68;;;19.35;;
25045;SDS011;13044;49.304;12.840;2022-12-18T01:41:38;64.15;;;19.20;;
25045;SDS011;13044;49.304;12.840;2022-12-18T01:50:20;53.40;;;18.42;;
25045;SDS011;13044;49.304;12.840;2022-12-18T01:52:58;39.63;;;13.73;;
25045;SDS011;13044;49.304;12.840;2022-12-18T01:55:45;64.07;;;21.38;;
25045;SDS011;13044;49.304;12.840;2022-12-18T01:58:17;78.03;;;20.70;;
25045;SDS011;13044;49.304;12.840;2022-12-18T02:00:46;69.50;;;20.85;;
25045;SDS011;13044;49.304;12.840;2022-12-18T02:03:12;61.28;;;19.10;;
25045;SDS011;13044;49.304;12.840;2022-12-18T02:05:44;60.05;;;20.08;;
25045;SDS011;13044;49.304;12.840;2022-12-18T02:11:11;61.17;;;20.35;;
25045;SDS011;13044;49.304;12.840;2022-12-18T02:17:02;65.40;;;19.33;;
25045;SDS011;13044;49.304;12.840;2022-12-18T02:22:59;58.95;;;20.25;;
25045;SDS011;13044;49.304;12.840;2022-12-18T02:29:05;52.50;;;18.88;;
25045;SDS011;13044;49.304;12.840;2022-12-18T02:31:40;62.03;;;20.42;;
25045;SDS011;13044;49.304;12.840;2022-12-18T02:34:13;51.47;;;17.83;;
25045;SDS011;13044;49.304;12.840;2022-12-18T02:36:40;64.80;;;18.55;;
25045;SDS011;13044;49.304;12.840;2022-12-18T02:39:10;58.88;;;17.65;;
25045;SDS011;13044;49.304;12.840;2022-12-18T02:41:39;64.07;;;18.10;;
25045;SDS011;13044;49.304;12.840;2022-12-18T02:44:07;55.90;;;17.48;;
25045;SDS011;13044;49.304;12.840;2022-12-18T02:46:44;55.40;;;16.08;;
25045;SDS011;13044;49.304;12.840;2022-12-18T02:52:07;60.40;;;17.48;;
25045;SDS011;13044;49.304;12.840;2022-12-18T02:57:54;48.90;;;15.20;;
25045;SDS011;13044;49.304;12.840;2022-12-18T03:00:29;41.63;;;14.85;;
25045;SDS011;13044;49.304;12.840;2022-12-18T03:03:19;48.15;;;16.77;;
25045;SDS011;13044;49.304;12.840;2022-12-18T03:06:04;44.75;;;16.52;;
25045;SDS011;13044;49.304;12.840;2022-12-18T03:08:38;45.03;;;15.48;;
25045;SDS011;13044;49.304;12.840;2022-12-18T03:11:09;44.47;;;15.63;;
25045;SDS011;13044;49.304;12.840;2022-12-18T03:13:46;44.70;;;16.05;;
25045;SDS011;13044;49.304;12.840;2022-12-18T03:16:28;39.30;;;14.70;;
25045;SDS011;13044;49.304;12.840;2022-12-18T03:19:05;45.45;;;14.55;;
25045;SDS011;13044;49.304;12.840;2022-12-18T03:21:56;46.25;;;14.07;;
25045;SDS011;13044;49.304;12.840;2022-12-18T03:24:25;49.97;;;15.50;;
25045;SDS011;13044;49.304;12.840;2022-12-18T03:26:54;56.35;;;14.77;;
25045;SDS011;13044;49.304;12.840;2022-12-18T03:32:10;44.72;;;14.48;;
25045;SDS011;13044;49.304;12.840;2022-12-18T03:34:42;52.72;;;16.55;;
25045;SDS011;13044;49.304;12.840;2022-12-18T03:37:14;47.05;;;16.98;;
25045;SDS011;13044;49.304;12.840;2022-12-18T03:39:41;42.15;;;16.30;;
25045;SDS011;13044;49.304;12.840;2022-12-18T03:50:52;50.08;;;15.25;;
25045;SDS011;13044;49.304;12.840;2022-12-18T03:58:36;48.65;;;14.60;;
25045;SDS011;13044;49.304;12.840;2022-12-18T04:01:07;45.58;;;16.55;;
25045;SDS011;13044;49.304;12.840;2022-12-18T04:03:36;49.03;;;16.95;;
25045;SDS011;13044;49.304;12.840;2022-12-18T04:06:05;56.53;;;17.27;;
25045;SDS011;13044;49.304;12.840;2022-12-18T04:08:33;50.97;;;16.75;;
25045;SDS011;13044;49.304;12.840;2022-12-18T04:11:01;56.95;;;17.67;;
25045;SDS011;13044;49.304;12.840;2022-12-18T04:13:29;43.80;;;14.82;;
25045;SDS011;13044;49.304;12.840;2022-12-18T04:16:00;33.67;;;13.10;;
25045;SDS011;13044;49.304;12.840;2022-12-18T04:18:28;44.20;;;15.98;;
25045;SDS011;13044;49.304;12.840;2022-12-18T04:20:55;38.28;;;12.27;;
25045;SDS011;13044;49.304;12.840;2022-12-18T04:23:24;50.50;;;15.40;;
25045;SDS011;13044;49.304;12.840;2022-12-18T04:25:51;54.72;;;16.33;;
25045;SDS011;13044;49.304;12.840;2022-12-18T04:28:17;47.42;;;16.05;;
25045;SDS011;13044;49.304;12.840;2022-12-18T04:30:45;48.67;;;16.30;;
25045;SDS011;13044;49.304;12.840;2022-12-18T04:33:14;48.40;;;15.93;;
25045;SDS011;13044;49.304;12.840;2022-12-18T04:35:42;43.88;;;14.35;;
25045;SDS011;13044;49.304;12.840;2022-12-18T04:38:09;52.47;;;17.13;;
25045;SDS011;13044;49.304;12.840;2022-12-18T04:40:36;29.17;;;10.07;;
25045;SDS011;13044;49.304;12.840;2022-12-18T04:43:04;47.95;;;15.13;;
25045;SDS011;13044;49.304;12.840;2022-12-18T04:45:31;41.35;;;14.45;;
25045;SDS011;13044;49.304;12.840;2022-12-18T04:48:01;40.55;;;11.23;;
25045;SDS011;13044;49.304;12.840;2022-12-18T04:50:28;43.28;;;15.68;;
25045;SDS011;13044;49.304;12.840;2022-12-18T04:52:56;41.30;;;14.23;;
25045;SDS011;13044;49.304;12.840;2022-12-18T04:55:23;41.42;;;14.07;;
25045;SDS011;13044;49.304;12.840;2022-12-18T04:57:50;38.03;;;15.00;;
25045;SDS011;13044;49.304;12.840;2022-12-18T05:00:17;44.95;;;14.70;;
25045;SDS011;13044;49.304;12.840;2022-12-18T05:02:44;29.17;;;11.18;;
25045;SDS011;13044;49.304;12.840;2022-12-18T05:05:11;40.67;;;15.68;;
25045;SDS011;13044;49.304;12.840;2022-12-18T05:07:38;42.13;;;15.02;;
25045;SDS011;13044;49.304;12.840;2022-12-18T05:10:06;49.10;;;15.85;;
25045;SDS011;13044;49.304;12.840;2022-12-18T05:12:35;38.00;;;13.93;;
25045;SDS011;13044;49.304;12.840;2022-12-18T05:15:22;33.30;;;12.25;;
25045;SDS011;13044;49.304;12.840;2022-12-18T05:17:49;42.95;;;15.75;;
25045;SDS011;13044;49.304;12.840;2022-12-18T05:20:15;44.95;;;16.42;;
25045;SDS011;13044;49.304;12.840;2022-12-18T05:22:44;45.90;;;15.50;;
25045;SDS011;13044;49.304;12.840;2022-12-18T05:25:10;40.92;;;15.05;;
25045;SDS011;13044;49.304;12.840;2022-12-18T05:27:37;43.65;;;15.07;;
25045;SDS011;13044;49.304;12.840;2022-12-18T05:30:04;50.13;;;16.85;;
25045;SDS011;13044;49.304;12.840;2022-12-18T05:32:39;48.45;;;16.85;;
25045;SDS011;13044;49.304;12.840;2022-12-18T05:35:07;41.08;;;15.10;;
25045;SDS011;13044;49.304;12.840;2022-12-18T05:37:36;57.90;;;21.10;;
25045;SDS011;13044;49.304;12.840;2022-12-18T05:40:08;39.00;;;14.05;;
25045;SDS011;13044;49.304;12.840;2022-12-18T05:42:36;51.22;;;17.65;;
25045;SDS011;13044;49.304;12.840;2022-12-18T05:45:04;29.42;;;10.75;;
25045;SDS011;13044;49.304;12.840;2022-12-18T05:47:32;56.47;;;17.90;;
25045;SDS011;13044;49.304;12.840;2022-12-18T05:49:58;48.92;;;16.58;;
25045;SDS011;13044;49.304;12.840;2022-12-18T05:52:25;22.98;;;9.30;;
25045;SDS011;13044;49.304;12.840;2022-12-18T05:54:52;47.15;;;14.38;;
25045;SDS011;13044;49.304;12.840;2022-12-18T05:57:19;47.92;;;15.40;;
25045;SDS011;13044;49.304;12.840;2022-12-18T05:59:46;48.17;;;15.85;;
25045;SDS011;13044;49.304;12.840;2022-12-18T06:02:12;43.10;;;15.70;;
25045;SDS011;13044;49.304;12.840;2022-12-18T06:04:39;47.95;;;17.85;;
25045;SDS011;13044;49.304;12.840;2022-12-18T06:07:06;43.83;;;15.10;;
25045;SDS011;13044;49.304;12.840;2022-12-18T06:09:33;43.65;;;14.85;;
25045;SDS011;13044;49.304;12.840;2022-12-18T06:12:00;50.42;;;18.27;;
25045;SDS011;13044;49.304;12.840;2022-12-18T06:14:26;46.00;;;14.98;;
25045;SDS011;13044;49.304;12.840;2022-12-18T06:16:53;41.20;;;16.92;;
25045;SDS011;13044;49.304;12.840;2022-12-18T06:19:20;47.90;;;16.30;;
25045;SDS011;13044;49.304;12.840;2022-12-18T06:21:47;45.28;;;15.40;;
25045;SDS011;13044;49.304;12.840;2022-12-18T06:24:15;37.65;;;14.63;;
25045;SDS011;13044;49.304;12.840;2022-12-18T06:26:42;44.03;;;15.30;;
25045;SDS011;13044;49.304;12.840;2022-12-18T06:29:09;56.20;;;19.40;;
25045;SDS011;13044;49.304;12.840;2022-12-18T06:31:36;47.95;;;17.92;;
25045;SDS011;13044;49.304;12.840;2022-12-18T06:34:04;56.00;;;18.90;;
25045;SDS011;13044;49.304;12.840;2022-12-18T06:36:31;52.58;;;19.10;;
25045;SDS011;13044;49.304;12.840;2022-12-18T06:38:58;54.67;;;18.17;;
25045;SDS011;13044;49.304;12.840;2022-12-18T06:41:25;55.10;;;16.00;;
25045;SDS011;13044;49.304;12.840;2022-12-18T06:43:54;46.28;;;15.13;;
25045;SDS011;13044;49.304;12.840;2022-12-18T06:46:25;35.72;;;11.80;;
25045;SDS011;13044;49.304;12.840;2022-12-18T06:48:52;46.28;;;15.40;;
25045;SDS011;13044;49.304;12.840;2022-12-18T06:51:19;50.80;;;14.70;;
25045;SDS011;13044;49.304;12.840;2022-12-18T06:53:48;47.67;;;14.50;;
25045;SDS011;13044;49.304;12.840;2022-12-18T06:56:16;50.63;;;16.42;;
25045;SDS011;13044;49.304;12.840;2022-12-18T06:58:42;39.00;;;13.57;;
25045;SDS011;13044;49.304;12.840;2022-12-18T07:01:10;39.00;;;14.15;;
25045;SDS011;13044;49.304;12.840;2022-12-18T07:03:38;47.13;;;17.30;;
25045;SDS011;13044;49.304;12.840;2022-12-18T07:06:13;43.40;;;14.57;;
25045;SDS011;13044;49.304;12.840;2022-12-18T07:08:45;34.75;;;12.45;;
25045;SDS011;13044;49.304;12.840;2022-12-18T07:11:16;35.97;;;10.95;;
25045;SDS011;13044;49.304;12.840;2022-12-18T07:13:44;43.03;;;15.45;;
25045;SDS011;13044;49.304;12.840;2022-12-18T07:16:12;41.90;;;14.80;;
25045;SDS011;13044;49.304;12.840;2022-12-18T07:18:50;45.53;;;15.30;;
25045;SDS011;13044;49.304;12.840;2022-12-18T07:21:18;47.85;;;16.40;;
25045;SDS011;13044;49.304;12.840;2022-12-18T07:23:46;43.10;;;15.02;;
25045;SDS011;13044;49.304;12.840;2022-12-18T07:26:15;41.60;;;16.02;;
25045;SDS011;13044;49.304;12.840;2022-12-18T07:28:44;44.33;;;13.77;;
25045;SDS011;13044;49.304;12.840;2022-12-18T07:31:12;44.17;;;16.00;;
25045;SDS011;13044;49.304;12.840;2022-12-18T07:33:43;35.05;;;13.60;;
25045;SDS011;13044;49.304;12.840;2022-12-18T07:36:10;55.92;;;20.63;;
25045;SDS011;13044;49.304;12.840;2022-12-18T07:38:37;47.67;;;16.40;;
25045;SDS011;13044;49.304;12.840;2022-12-18T07:41:06;40.78;;;16.17;;
25045;SDS011;13044;49.304;12.840;2022-12-18T07:43:38;33.08;;;14.70;;
25045;SDS011;13044;49.304;12.840;2022-12-18T07:46:08;39.95;;;15.50;;
25045;SDS011;13044;49.304;12.840;2022-12-18T07:48:38;37.53;;;14.18;;
25045;SDS011;13044;49.304;12.840;2022-12-18T07:51:14;40.15;;;15.35;;
25045;SDS011;13044;49.304;12.840;2022-12-18T07:53:43;43.60;;;17.05;;
25045;SDS011;13044;49.304;12.840;2022-12-18T07:56:10;50.03;;;17.25;;
25045;SDS011;13044;49.304;12.840;2022-12-18T07:58:57;41.42;;;15.90;;
25045;SDS011;13044;49.304;12.840;2022-12-18T08:01:25;52.50;;;17.80;;
25045;SDS011;13044;49.304;12.840;2022-12-18T08:03:52;46.20;;;16.85;;
25045;SDS011;13044;49.304;12.840;2022-12-18T08:06:19;37.58;;;15.55;;
25045;SDS011;13044;49.304;12.840;2022-12-18T08:08:50;43.42;;;17.30;;
25045;SDS011;13044;49.304;12.840;2022-12-18T08:11:18;50.65;;;17.23;;
25045;SDS011;13044;49.304;12.840;2022-12-18T08:13:46;45.17;;;16.95;;
25045;SDS011;13044;49.304;12.840;2022-12-18T08:16:14;35.88;;;13.50;;
25045;SDS011;13044;49.304;12.840;2022-12-18T08:18:41;46.78;;;16.25;;
25045;SDS011;13044;49.304;12.840;2022-12-18T08:21:12;51.95;;;18.05;;
25045;SDS011;13044;49.304;12.840;2022-12-18T08:23:47;47.58;;;16.98;;
25045;SDS011;13044;49.304;12.840;2022-12-18T08:26:17;48.10;;;17.08;;
25045;SDS011;13044;49.304;12.840;2022-12-18T08:28:46;36.05;;;13.38;;
25045;SDS011;13044;49.304;12.840;2022-12-18T08:31:13;45.88;;;16.83;;
25045;SDS011;13044;49.304;12.840;2022-12-18T08:33:40;42.95;;;15.73;;
25045;SDS011;13044;49.304;12.840;2022-12-18T08:36:08;42.05;;;15.98;;
25045;SDS011;13044;49.304;12.840;2022-12-18T08:38:36;43.78;;;16.70;;
25045;SDS011;13044;49.304;12.840;2022-12-18T08:41:04;43.72;;;15.70;;
25045;SDS011;13044;49.304;12.840;2022-12-18T08:43:34;42.28;;;16.88;;
25045;SDS011;13044;49.304;12.840;2022-12-18T08:46:20;39.70;;;14.73;;
25045;SDS011;13044;49.304;12.840;2022-12-18T08:48:50;43.60;;;14.55;;
25045;SDS011;13044;49.304;12.840;2022-12-18T08:51:18;55.08;;;17.45;;
25045;SDS011;13044;49.304;12.840;2022-12-18T08:53:45;44.20;;;14.80;;
25045;SDS011;13044;49.304;12.840;2022-12-18T08:56:13;47.00;;;16.77;;
25045;SDS011;13044;49.304;12.840;2022-12-18T08:58:41;42.92;;;14.40;;
25045;SDS011;13044;49.304;12.840;2022-12-18T09:01:09;54.08;;;19.10;;
25045;SDS011;13044;49.304;12.840;2022-12-18T09:03:38;45.03;;;17.70;;
25045;SDS011;13044;49.304;12.840;2022-12-18T09:06:06;52.17;;;18.38;;
25045;SDS011;13044;49.304;12.840;2022-12-18T09:08:34;46.60;;;17.83;;
25045;SDS011;13044;49.304;12.840;2022-12-18T09:11:01;53.13;;;16.55;;
25045;SDS011;13044;49.304;12.840;2022-12-18T09:13:28;43.72;;;14.95;;
25045;SDS011;13044;49.304;12.840;2022-12-18T09:15:55;59.28;;;20.67;;
25045;SDS011;13044;49.304;12.840;2022-12-18T09:18:23;52.00;;;16.65;;
25045;SDS011;13044;49.304;12.840;2022-12-18T09:20:51;46.60;;;16.13;;
25045;SDS011;13044;49.304;12.840;2022-12-18T09:23:19;43.60;;;15.45;;
25045;SDS011;13044;49.304;12.840;2022-12-18T09:25:48;43.65;;;15.45;;
25045;SDS011;13044;49.304;12.840;2022-12-18T09:28:16;44.80;;;15.07;;
25045;SDS011;13044;49.304;12.840;2022-12-18T09:30:48;47.65;;;16.67;;
25045;SDS011;13044;49.304;12.840;2022-12-18T09:33:16;29.13;;;10.88;;
25045;SDS011;13044;49.304;12.840;2022-12-18T09:35:43;52.03;;;16.98;;
25045;SDS011;13044;49.304;12.840;2022-12-18T09:38:12;47.10;;;17.60;;
25045;SDS011;13044;49.304;12.840;2022-12-18T09:40:43;51.78;;;17.35;;
25045;SDS011;13044;49.304;12.840;2022-12-18T09:43:43;46.42;;;15.50;;
25045;SDS011;13044;49.304;12.840;2022-12-18T09:46:17;40.35;;;16.00;;
25045;SDS011;13044;49.304;12.840;2022-12-18T09:48:54;44.58;;;16.02;;
25045;SDS011;13044;49.304;12.840;2022-12-18T09:51:30;43.55;;;16.85;;
25045;SDS011;13044;49.304;12.840;2022-12-18T09:54:07;50.53;;;18.17;;
25045;SDS011;13044;49.304;12.840;2022-12-18T09:56:42;58.53;;;18.20;;
25045;SDS011;13044;49.304;12.840;2022-12-18T10:02:14;44.58;;;17.98;;
25045;SDS011;13044;49.304;12.840;2022-12-18T10:07:38;58.35;;;19.63;;
25045;SDS011;13044;49.304;12.840;2022-12-18T10:10:32;54.40;;;18.15;;
25045;SDS011;13044;49.304;12.840;2022-12-18T10:13:29;52.70;;;18.88;;
25045;SDS011;13044;49.304;12.840;2022-12-18T10:21:50;50.70;;;17.83;;
25045;SDS011;13044;49.304;12.840;2022-12-18T10:24:40;57.55;;;20.02;;
25045;SDS011;13044;49.304;12.840;2022-12-18T10:27:21;60.45;;;18.58;;
25045;SDS011;13044;49.304;12.840;2022-12-18T10:29:52;54.05;;;20.65;;
25045;SDS011;13044;49.304;12.840;2022-12-18T10:32:21;45.38;;;17.90;;
25045;SDS011;13044;49.304;12.840;2022-12-18T10:34:51;61.15;;;21.33;;
25045;SDS011;13044;49.304;12.840;2022-12-18T10:37:26;61.25;;;20.45;;
25045;SDS011;13044;49.304;12.840;2022-12-18T10:40:14;59.00;;;20.13;;
25045;SDS011;13044;49.304;12.840;2022-12-18T10:43:01;43.55;;;16.17;;
25045;SDS011;13044;49.304;12.840;2022-12-18T10:45:41;52.97;;;19.17;;
25045;SDS011;13044;49.304;12.840;2022-12-18T10:48:28;65.40;;;20.95;;
25045;SDS011;13044;49.304;12.840;2022-12-18T10:50:56;55.78;;;20.70;;
25045;SDS011;13044;49.304;12.840;2022-12-18T10:53:41;78.57;;;25.67;;
25045;SDS011;13044;49.304;12.840;2022-12-18T10:56:09;73.07;;;25.08;;
25045;SDS011;13044;49.304;12.840;2022-12-18T10:58:37;71.25;;;24.85;;
25045;SDS011;13044;49.304;12.840;2022-12-18T11:01:16;62.15;;;21.27;;
25045;SDS011;13044;49.304;12.840;2022-12-18T11:06:27;56.10;;;21.13;;
25045;SDS011;13044;49.304;12.840;2022-12-18T11:11:48;50.15;;;19.73;;
25045;SDS011;13044;49.304;12.840;2022-12-18T11:14:32;58.65;;;22.80;;
25045;SDS011;13044;49.304;12.840;2022-12-18T11:19:56;59.47;;;20.17;;
25045;SDS011;13044;49.304;12.840;2022-12-18T11:22:36;64.90;;;21.40;;
25045;SDS011;13044;49.304;12.840;2022-12-18T11:25:05;59.75;;;21.95;;
25045;SDS011;13044;49.304;12.840;2022-12-18T11:30:36;57.10;;;21.65;;
25045;SDS011;13044;49.304;12.840;2022-12-18T11:33:08;62.05;;;22.65;;
25045;SDS011;13044;49.304;12.840;2022-12-18T11:38:26;52.63;;;17.85;;
25045;SDS011;13044;49.304;12.840;2022-12-18T11:44:16;63.53;;;22.00;;
25045;SDS011;13044;49.304;12.840;2022-12-18T11:47:09;72.55;;;22.83;;
25045;SDS011;13044;49.304;12.840;2022-12-18T11:49:51;67.75;;;21.85;;
25045;SDS011;13044;49.304;12.840;2022-12-18T11:52:23;61.42;;;20.70;;
25045;SDS011;13044;49.304;12.840;2022-12-18T11:55:07;69.57;;;22.58;;
25045;SDS011;13044;49.304;12.840;2022-12-18T11:57:40;60.40;;;23.52;;
25045;SDS011;13044;49.304;12.840;2022-12-18T12:00:36;56.58;;;21.38;;
25045;SDS011;13044;49.304;12.840;2022-12-18T12:03:20;62.97;;;22.05;;
25045;SDS011;13044;49.304;12.840;2022-12-18T12:06:26;63.20;;;21.75;;
25045;SDS011;13044;49.304;12.840;2022-12-18T12:09:14;63.53;;;22.25;;
25045;SDS011;13044;49.304;12.840;2022-12-18T12:21:17;69.68;;;22.73;;
25045;SDS011;13044;49.304;12.840;2022-12-18T12:27:03;62.45;;;24.10;;
25045;SDS011;13044;49.304;12.840;2022-12-18T12:30:05;65.60;;;22.75;;
25045;SDS011;13044;49.304;12.840;2022-12-18T12:33:13;58.00;;;20.45;;
25045;SDS011;13044;49.304;12.840;2022-12-18T12:36:14;71.63;;;25.20;;
25045;SDS011;13044;49.304;12.840;2022-12-18T12:38:58;60.72;;;21.80;;
25045;SDS011;13044;49.304;12.840;2022-12-18T12:41:32;62.17;;;24.35;;
25045;SDS011;13044;49.304;12.840;2022-12-18T12:44:21;75.50;;;27.55;;
25045;SDS011;13044;49.304;12.840;2022-12-18T12:46:55;63.47;;;23.48;;
25045;SDS011;13044;49.304;12.840;2022-12-18T12:49:30;66.07;;;25.60;;
25045;SDS011;13044;49.304;12.840;2022-12-18T12:52:07;81.53;;;34.63;;
25045;SDS011;13044;49.304;12.840;2022-12-18T12:54:41;87.03;;;39.45;;
25045;SDS011;13044;49.304;12.840;2022-12-18T13:00:04;64.45;;;25.27;;
25045;SDS011;13044;49.304;12.840;2022-12-18T13:02:43;62.05;;;25.08;;
25045;SDS011;13044;49.304;12.840;2022-12-18T13:05:28;56.95;;;22.35;;
25045;SDS011;13044;49.304;12.840;2022-12-18T13:08:23;55.60;;;21.83;;
25045;SDS011;13044;49.304;12.840;2022-12-18T13:10:58;48.95;;;21.33;;
25045;SDS011;13044;49.304;12.840;2022-12-18T13:13:49;51.10;;;21.92;;
25045;SDS011;13044;49.304;12.840;2022-12-18T13:16:20;66.55;;;24.70;;
25045;SDS011;13044;49.304;12.840;2022-12-18T13:18:50;56.45;;;22.88;;
25045;SDS011;13044;49.304;12.840;2022-12-18T13:21:22;63.03;;;23.50;;
25045;SDS011;13044;49.304;12.840;2022-12-18T13:23:54;63.80;;;24.10;;
25045;SDS011;13044;49.304;12.840;2022-12-18T13:28:54;50.15;;;19.75;;
25045;SDS011;13044;49.304;12.840;2022-12-18T13:36:55;55.55;;;22.65;;
25045;SDS011;13044;49.304;12.840;2022-12-18T13:39:51;56.55;;;22.13;;
25045;SDS011;13044;49.304;12.840;2022-12-18T13:45:41;53.85;;;22.70;;
25045;SDS011;13044;49.304;12.840;2022-12-18T13:48:29;61.22;;;22.92;;
25045;SDS011;13044;49.304;12.840;2022-12-18T13:51:01;48.75;;;18.83;;
25045;SDS011;13044;49.304;12.840;2022-12-18T13:53:36;52.72;;;22.00;;
25045;SDS011;13044;49.304;12.840;2022-12-18T13:56:14;55.03;;;21.38;;
25045;SDS011;13044;49.304;12.840;2022-12-18T14:02:12;49.20;;;20.42;;
25045;SDS011;13044;49.304;12.840;2022-12-18T14:04:44;48.35;;;19.30;;
25045;SDS011;13044;49.304;12.840;2022-12-18T14:07:14;57.65;;;20.30;;
25045;SDS011;13044;49.304;12.840;2022-12-18T14:09:52;62.88;;;24.88;;
25045;SDS011;13044;49.304;12.840;2022-12-18T14:12:49;46.97;;;18.77;;
25045;SDS011;13044;49.304;12.840;2022-12-18T14:20:31;50.20;;;20.70;;
25045;SDS011;13044;49.304;12.840;2022-12-18T14:22:59;53.63;;;21.20;;
25045;SDS011;13044;49.304;12.840;2022-12-18T14:25:27;54.47;;;20.77;;
25045;SDS011;13044;49.304;12.840;2022-12-18T14:30:38;55.75;;;21.58;;
25045;SDS011;13044;49.304;12.840;2022-12-18T14:35:55;58.22;;;22.35;;
25045;SDS011;13044;49.304;12.840;2022-12-18T14:38:32;49.97;;;18.45;;
25045;SDS011;13044;49.304;12.840;2022-12-18T14:43:33;53.28;;;20.33;;
25045;SDS011;13044;49.304;12.840;2022-12-18T14:46:03;60.42;;;22.60;;
25045;SDS011;13044;49.304;12.840;2022-12-18T14:48:39;53.08;;;21.73;;
25045;SDS011;13044;49.304;12.840;2022-12-18T14:51:15;52.90;;;19.40;;
25045;SDS011;13044;49.304;12.840;2022-12-18T14:54:12;52.33;;;21.00;;
25045;SDS011;13044;49.304;12.840;2022-12-18T14:56:46;54.22;;;20.50;;
25045;SDS011;13044;49.304;12.840;2022-12-18T14:59:16;52.45;;;20.65;;
25045;SDS011;13044;49.304;12.840;2022-12-18T15:01:56;51.30;;;20.95;;
25045;SDS011;13044;49.304;12.840;2022-12-18T15:04:45;46.00;;;18.88;;
25045;SDS011;13044;49.304;12.840;2022-12-18T15:12:41;40.58;;;17.50;;
25045;SDS011;13044;49.304;12.840;2022-12-18T15:26:06;53.20;;;21.90;;
25045;SDS011;13044;49.304;12.840;2022-12-18T15:31:32;49.22;;;20.77;;
25045;SDS011;13044;49.304;12.840;2022-12-18T15:39:03;48.70;;;18.73;;
25045;SDS011;13044;49.304;12.840;2022-12-18T15:41:32;52.58;;;21.83;;
25045;SDS011;13044;49.304;12.840;2022-12-18T15:44:02;51.83;;;22.45;;
25045;SDS011;13044;49.304;12.840;2022-12-18T15:46:41;38.33;;;16.00;;
25045;SDS011;13044;49.304;12.840;2022-12-18T15:49:08;56.10;;;23.13;;
25045;SDS011;13044;49.304;12.840;2022-12-18T15:51:36;57.63;;;23.02;;
25045;SDS011;13044;49.304;12.840;2022-12-18T15:54:05;49.47;;;21.83;;
25045;SDS011;13044;49.304;12.840;2022-12-18T15:56:37;47.58;;;21.05;;
25045;SDS011;13044;49.304;12.840;2022-12-18T15:59:23;48.70;;;19.35;;
25045;SDS011;13044;49.304;12.840;2022-12-18T16:01:51;50.35;;;21.17;;
25045;SDS011;13044;49.304;12.840;2022-12-18T16:04:22;47.13;;;20.33;;
25045;SDS011;13044;49.304;12.840;2022-12-18T16:06:49;62.35;;;26.25;;
25045;SDS011;13044;49.304;12.840;2022-12-18T16:09:37;49.22;;;22.42;;
25045;SDS011;13044;49.304;12.840;2022-12-18T16:12:05;49.13;;;20.60;;
25045;SDS011;13044;49.304;12.840;2022-12-18T16:14:35;52.38;;;19.70;;
25045;SDS011;13044;49.304;12.840;2022-12-18T16:17:04;48.10;;;19.13;;
25045;SDS011;13044;49.304;12.840;2022-12-18T16:19:35;109.20;;;39.28;;
25045;SDS011;13044;49.304;12.840;2022-12-18T16:22:02;64.03;;;27.77;;
25045;SDS011;13044;49.304;12.840;2022-12-18T16:24:30;67.85;;;25.90;;
25045;SDS011;13044;49.304;12.840;2022-12-18T16:26:59;56.97;;;23.65;;
25045;SDS011;13044;49.304;12.840;2022-12-18T16:29:27;60.92;;;23.02;;
25045;SDS011;13044;49.304;12.840;2022-12-18T16:31:55;58.47;;;21.13;;
25045;SDS011;13044;49.304;12.840;2022-12-18T16:34:26;57.95;;;22.48;;
25045;SDS011;13044;49.304;12.840;2022-12-18T16:37:04;59.50;;;22.40;;
25045;SDS011;13044;49.304;12.840;2022-12-18T16:39:34;59.58;;;23.08;;
25045;SDS011;13044;49.304;12.840;2022-12-18T16:42:03;53.15;;;22.17;;
25045;SDS011;13044;49.304;12.840;2022-12-18T16:44:33;51.78;;;22.27;;
25045;SDS011;13044;49.304;12.840;2022-12-18T16:47:01;56.60;;;23.88;;
25045;SDS011;13044;49.304;12.840;2022-12-18T16:49:29;61.83;;;22.83;;
25045;SDS011;13044;49.304;12.840;2022-12-18T16:51:56;64.47;;;23.65;;
25045;SDS011;13044;49.304;12.840;2022-12-18T16:54:23;49.67;;;20.25;;
25045;SDS011;13044;49.304;12.840;2022-12-18T16:56:50;55.67;;;20.75;;